sensor_id;sensor_type;location;lat;lon;timestamp;P1;durP1;ratioP1;P2;durP2;ratioP2
44272;SDS011;29964;17.182;-96.766;2023-04-01T00:01:11;3.47;;;1.88;;
44272;SDS011;29964;17.182;-96.766;2023-04-01T00:03:41;5.30;;;2.03;;
44272;SDS011;29964;17.182;-96.766;2023-04-01T00:06:09;7.30;;;2.15;;
44272;SDS011;29964;17.182;-96.766;2023-04-01T00:08:45;1.83;;;1.42;;
44272;SDS011;29964;17.182;-96.766;2023-04-01T00:11:12;2.00;;;1.40;;
44272;SDS011;29964;17.182;-96.766;2023-04-01T00:13:38;5.65;;;1.40;;
44272;SDS011;29964;17.182;-96.766;2023-04-01T00:16:05;3.47;;;1.95;;
44272;SDS011;29964;17.182;-96.766;2023-04-01T00:18:32;2.42;;;1.50;;
44272;SDS011;29964;17.182;-96.766;2023-04-01T00:20:59;2.60;;;1.55;;
44272;SDS011;29964;17.182;-96.766;2023-04-01T00:23:25;2.97;;;1.63;;
44272;SDS011;29964;17.182;-96.766;2023-04-01T00:25:52;6.13;;;1.88;;
44272;SDS011;29964;17.182;-96.766;2023-04-01T00:28:19;3.72;;;1.75;;
44272;SDS011;29964;17.182;-96.766;2023-04-01T00:30:46;3.08;;;1.55;;
44272;SDS011;29964;17.182;-96.766;2023-04-01T00:33:13;2.72;;;1.42;;
44272;SDS011;29964;17.182;-96.766;2023-04-01T00:35:40;2.97;;;1.80;;
44272;SDS011;29964;17.182;-96.766;2023-04-01T00:38:07;6.43;;;1.70;;
44272;SDS011;29964;17.182;-96.766;2023-04-01T00:40:35;9.30;;;2.55;;
44272;SDS011;29964;17.182;-96.766;2023-04-01T00:43:15;4.07;;;1.90;;
44272;SDS011;29964;17.182;-96.766;2023-04-01T00:45:47;3.20;;;2.38;;
44272;SDS011;29964;17.182;-96.766;2023-04-01T00:48:18;31.55;;;2.67;;
44272;SDS011;29964;17.182;-96.766;2023-04-01T00:50:55;6.10;;;2.45;;
44272;SDS011;29964;17.182;-96.766;2023-04-01T00:56:03;3.50;;;2.15;;
44272;SDS011;29964;17.182;-96.766;2023-04-01T00:58:32;3.08;;;2.03;;
44272;SDS011;29964;17.182;-96.766;2023-04-01T01:01:01;3.63;;;2.30;;
44272;SDS011;29964;17.182;-96.766;2023-04-01T01:03:28;7.28;;;3.35;;
44272;SDS011;29964;17.182;-96.766;2023-04-01T01:08:33;5.13;;;2.63;;
44272;SDS011;29964;17.182;-96.766;2023-04-01T01:11:03;6.05;;;3.38;;
44272;SDS011;29964;17.182;-96.766;2023-04-01T01:15:59;3.97;;;2.30;;
44272;SDS011;29964;17.182;-96.766;2023-04-01T01:29:01;5.15;;;3.03;;
44272;SDS011;29964;17.182;-96.766;2023-04-01T01:31:34;3.57;;;2.70;;
44272;SDS011;29964;17.182;-96.766;2023-04-01T01:34:09;7.17;;;2.90;;
44272;SDS011;29964;17.182;-96.766;2023-04-01T01:36:38;4.87;;;3.03;;
44272;SDS011;29964;17.182;-96.766;2023-04-01T01:39:07;6.13;;;2.63;;
44272;SDS011;29964;17.182;-96.766;2023-04-01T01:41:35;6.40;;;2.97;;
44272;SDS011;29964;17.182;-96.766;2023-04-01T01:44:02;7.70;;;3.50;;
44272;SDS011;29964;17.182;-96.766;2023-04-01T01:46:30;23.27;;;2.83;;
44272;SDS011;29964;17.182;-96.766;2023-04-01T01:48:57;6.10;;;3.63;;
44272;SDS011;29964;17.182;-96.766;2023-04-01T01:51:25;7.17;;;3.70;;
44272;SDS011;29964;17.182;-96.766;2023-04-01T01:53:53;7.60;;;3.27;;
44272;SDS011;29964;17.182;-96.766;2023-04-01T01:56:21;5.10;;;3.30;;
44272;SDS011;29964;17.182;-96.766;2023-04-01T01:58:49;7.30;;;3.70;;
44272;SDS011;29964;17.182;-96.766;2023-04-01T02:01:19;9.00;;;3.67;;
44272;SDS011;29964;17.182;-96.766;2023-04-01T02:03:47;8.10;;;3.37;;
44272;SDS011;29964;17.182;-96.766;2023-04-01T02:06:16;6.77;;;4.17;;
44272;SDS011;29964;17.182;-96.766;2023-04-01T02:11:13;5.40;;;3.73;;
44272;SDS011;29964;17.182;-96.766;2023-04-01T02:13:50;8.33;;;4.00;;
44272;SDS011;29964;17.182;-96.766;2023-04-01T02:16:20;7.83;;;3.87;;
44272;SDS011;29964;17.182;-96.766;2023-04-01T02:18:49;5.07;;;3.97;;
44272;SDS011;29964;17.182;-96.766;2023-04-01T02:21:18;14.37;;;4.33;;
44272;SDS011;29964;17.182;-96.766;2023-04-01T02:23:46;7.63;;;4.37;;
44272;SDS011;29964;17.182;-96.766;2023-04-01T02:26:13;7.67;;;4.40;;
44272;SDS011;29964;17.182;-96.766;2023-04-01T02:28:40;11.27;;;4.90;;
44272;SDS011;29964;17.182;-96.766;2023-04-01T02:31:08;7.40;;;4.03;;
44272;SDS011;29964;17.182;-96.766;2023-04-01T02:33:36;9.27;;;4.83;;
44272;SDS011;29964;17.182;-96.766;2023-04-01T02:36:04;6.13;;;4.00;;
44272;SDS011;29964;17.182;-96.766;2023-04-01T02:38:31;9.67;;;4.40;;
44272;SDS011;29964;17.182;-96.766;2023-04-01T02:40:59;8.37;;;4.13;;
44272;SDS011;29964;17.182;-96.766;2023-04-01T02:43:26;7.87;;;4.73;;
44272;SDS011;29964;17.182;-96.766;2023-04-01T02:45:53;8.67;;;4.97;;
44272;SDS011;29964;17.182;-96.766;2023-04-01T02:48:20;6.70;;;4.13;;
44272;SDS011;29964;17.182;-96.766;2023-04-01T02:50:47;5.80;;;4.30;;
44272;SDS011;29964;17.182;-96.766;2023-04-01T02:53:13;6.77;;;4.90;;
44272;SDS011;29964;17.182;-96.766;2023-04-01T02:55:40;6.67;;;4.27;;
44272;SDS011;29964;17.182;-96.766;2023-04-01T02:58:07;5.37;;;3.43;;
44272;SDS011;29964;17.182;-96.766;2023-04-01T03:00:34;7.27;;;4.87;;
44272;SDS011;29964;17.182;-96.766;2023-04-01T03:03:01;4.53;;;4.00;;
44272;SDS011;29964;17.182;-96.766;2023-04-01T03:05:28;5.93;;;4.17;;
44272;SDS011;29964;17.182;-96.766;2023-04-01T03:07:55;7.90;;;4.30;;
44272;SDS011;29964;17.182;-96.766;2023-04-01T03:10:22;10.00;;;3.70;;
44272;SDS011;29964;17.182;-96.766;2023-04-01T03:12:48;5.57;;;4.17;;
44272;SDS011;29964;17.182;-96.766;2023-04-01T03:15:15;7.13;;;4.63;;
44272;SDS011;29964;17.182;-96.766;2023-04-01T03:17:42;9.97;;;4.87;;
44272;SDS011;29964;17.182;-96.766;2023-04-01T03:20:10;4.97;;;3.60;;
44272;SDS011;29964;17.182;-96.766;2023-04-01T03:22:37;6.30;;;4.83;;
44272;SDS011;29964;17.182;-96.766;2023-04-01T03:25:07;6.00;;;4.23;;
44272;SDS011;29964;17.182;-96.766;2023-04-01T03:27:34;8.67;;;4.67;;
44272;SDS011;29964;17.182;-96.766;2023-04-01T03:30:02;16.07;;;5.30;;
44272;SDS011;29964;17.182;-96.766;2023-04-01T03:32:29;4.43;;;3.53;;
44272;SDS011;29964;17.182;-96.766;2023-04-01T03:34:55;5.70;;;4.53;;
44272;SDS011;29964;17.182;-96.766;2023-04-01T03:37:22;7.13;;;4.87;;
44272;SDS011;29964;17.182;-96.766;2023-04-01T03:39:49;6.97;;;4.67;;
44272;SDS011;29964;17.182;-96.766;2023-04-01T03:42:16;8.13;;;4.67;;
44272;SDS011;29964;17.182;-96.766;2023-04-01T03:44:43;7.77;;;4.43;;
44272;SDS011;29964;17.182;-96.766;2023-04-01T03:47:09;7.97;;;4.30;;
44272;SDS011;29964;17.182;-96.766;2023-04-01T03:49:36;6.53;;;4.27;;
44272;SDS011;29964;17.182;-96.766;2023-04-01T03:52:03;6.63;;;4.80;;
44272;SDS011;29964;17.182;-96.766;2023-04-01T03:54:30;6.20;;;4.27;;
44272;SDS011;29964;17.182;-96.766;2023-04-01T03:56:57;7.23;;;4.27;;
44272;SDS011;29964;17.182;-96.766;2023-04-01T03:59:24;6.20;;;4.63;;
44272;SDS011;29964;17.182;-96.766;2023-04-01T04:01:51;6.00;;;4.67;;
44272;SDS011;29964;17.182;-96.766;2023-04-01T04:04:18;7.57;;;4.67;;
44272;SDS011;29964;17.182;-96.766;2023-04-01T04:06:44;13.13;;;4.53;;
44272;SDS011;29964;17.182;-96.766;2023-04-01T04:09:11;11.53;;;5.10;;
44272;SDS011;29964;17.182;-96.766;2023-04-01T04:11:38;9.20;;;4.53;;
44272;SDS011;29964;17.182;-96.766;2023-04-01T04:14:04;5.57;;;4.17;;
44272;SDS011;29964;17.182;-96.766;2023-04-01T04:16:31;7.07;;;5.70;;
44272;SDS011;29964;17.182;-96.766;2023-04-01T04:18:58;7.57;;;5.30;;
44272;SDS011;29964;17.182;-96.766;2023-04-01T04:21:25;10.33;;;4.80;;
44272;SDS011;29964;17.182;-96.766;2023-04-01T04:23:51;5.13;;;3.90;;
44272;SDS011;29964;17.182;-96.766;2023-04-01T04:26:18;5.73;;;3.90;;
44272;SDS011;29964;17.182;-96.766;2023-04-01T04:28:45;9.17;;;4.37;;
44272;SDS011;29964;17.182;-96.766;2023-04-01T04:31:12;8.33;;;5.20;;
44272;SDS011;29964;17.182;-96.766;2023-04-01T04:33:43;5.90;;;4.60;;
44272;SDS011;29964;17.182;-96.766;2023-04-01T04:36:10;8.13;;;5.23;;
44272;SDS011;29964;17.182;-96.766;2023-04-01T04:38:37;13.57;;;4.47;;
44272;SDS011;29964;17.182;-96.766;2023-04-01T04:41:07;9.10;;;5.40;;
44272;SDS011;29964;17.182;-96.766;2023-04-01T04:43:34;6.30;;;4.27;;
44272;SDS011;29964;17.182;-96.766;2023-04-01T04:46:04;7.70;;;5.37;;
44272;SDS011;29964;17.182;-96.766;2023-04-01T04:48:31;4.43;;;3.50;;
44272;SDS011;29964;17.182;-96.766;2023-04-01T04:50:58;8.43;;;5.47;;
44272;SDS011;29964;17.182;-96.766;2023-04-01T04:53:24;4.27;;;3.63;;
44272;SDS011;29964;17.182;-96.766;2023-04-01T04:55:51;5.60;;;3.50;;
44272;SDS011;29964;17.182;-96.766;2023-04-01T04:58:18;6.67;;;3.60;;
44272;SDS011;29964;17.182;-96.766;2023-04-01T05:00:45;14.53;;;2.33;;
44272;SDS011;29964;17.182;-96.766;2023-04-01T05:03:12;8.73;;;3.50;;
44272;SDS011;29964;17.182;-96.766;2023-04-01T05:05:39;8.23;;;4.00;;
44272;SDS011;29964;17.182;-96.766;2023-04-01T05:08:06;4.10;;;3.00;;
44272;SDS011;29964;17.182;-96.766;2023-04-01T05:10:32;3.93;;;2.97;;
44272;SDS011;29964;17.182;-96.766;2023-04-01T05:12:59;8.43;;;3.87;;
44272;SDS011;29964;17.182;-96.766;2023-04-01T05:15:26;6.13;;;3.67;;
44272;SDS011;29964;17.182;-96.766;2023-04-01T05:17:53;8.00;;;3.57;;
44272;SDS011;29964;17.182;-96.766;2023-04-01T05:20:19;6.17;;;4.07;;
44272;SDS011;29964;17.182;-96.766;2023-04-01T05:22:46;3.80;;;2.80;;
44272;SDS011;29964;17.182;-96.766;2023-04-01T05:25:13;6.87;;;2.87;;
44272;SDS011;29964;17.182;-96.766;2023-04-01T05:27:39;3.40;;;2.40;;
44272;SDS011;29964;17.182;-96.766;2023-04-01T05:30:06;5.33;;;3.03;;
44272;SDS011;29964;17.182;-96.766;2023-04-01T05:32:33;4.80;;;3.13;;
44272;SDS011;29964;17.182;-96.766;2023-04-01T05:35:00;4.20;;;2.97;;
44272;SDS011;29964;17.182;-96.766;2023-04-01T05:37:26;5.67;;;3.07;;
44272;SDS011;29964;17.182;-96.766;2023-04-01T05:39:53;3.77;;;2.70;;
44272;SDS011;29964;17.182;-96.766;2023-04-01T05:42:20;6.03;;;3.10;;
44272;SDS011;29964;17.182;-96.766;2023-04-01T05:44:47;4.20;;;2.70;;
44272;SDS011;29964;17.182;-96.766;2023-04-01T05:47:13;3.97;;;2.83;;
44272;SDS011;29964;17.182;-96.766;2023-04-01T05:49:40;4.93;;;2.63;;
44272;SDS011;29964;17.182;-96.766;2023-04-01T05:52:07;9.43;;;2.63;;
44272;SDS011;29964;17.182;-96.766;2023-04-01T05:54:34;3.50;;;2.70;;
44272;SDS011;29964;17.182;-96.766;2023-04-01T05:57:00;3.70;;;2.67;;
44272;SDS011;29964;17.182;-96.766;2023-04-01T05:59:27;2.23;;;1.83;;
44272;SDS011;29964;17.182;-96.766;2023-04-01T06:01:56;3.40;;;2.50;;
44272;SDS011;29964;17.182;-96.766;2023-04-01T06:04:23;3.67;;;2.17;;
44272;SDS011;29964;17.182;-96.766;2023-04-01T06:06:50;3.33;;;2.33;;
44272;SDS011;29964;17.182;-96.766;2023-04-01T06:09:26;4.87;;;2.63;;
44272;SDS011;29964;17.182;-96.766;2023-04-01T06:20:01;11.13;;;3.17;;
44272;SDS011;29964;17.182;-96.766;2023-04-01T06:25:16;5.97;;;3.33;;
44272;SDS011;29964;17.182;-96.766;2023-04-01T06:30:24;6.07;;;3.50;;
44272;SDS011;29964;17.182;-96.766;2023-04-01T06:33:02;5.77;;;3.70;;
44272;SDS011;29964;17.182;-96.766;2023-04-01T06:43:37;3.43;;;2.57;;
44272;SDS011;29964;17.182;-96.766;2023-04-01T06:46:31;4.40;;;2.87;;
44272;SDS011;29964;17.182;-96.766;2023-04-01T06:56:23;6.53;;;3.13;;
44272;SDS011;29964;17.182;-96.766;2023-04-01T07:01:37;5.37;;;3.10;;
44272;SDS011;29964;17.182;-96.766;2023-04-01T07:07:00;3.43;;;2.40;;
44272;SDS011;29964;17.182;-96.766;2023-04-01T07:09:32;5.67;;;2.90;;
44272;SDS011;29964;17.182;-96.766;2023-04-01T07:12:02;4.70;;;3.27;;
44272;SDS011;29964;17.182;-96.766;2023-04-01T07:14:34;6.53;;;3.17;;
44272;SDS011;29964;17.182;-96.766;2023-04-01T07:17:08;6.27;;;3.40;;
44272;SDS011;29964;17.182;-96.766;2023-04-01T07:19:45;3.30;;;2.27;;
44272;SDS011;29964;17.182;-96.766;2023-04-01T07:24:43;4.23;;;2.63;;
44272;SDS011;29964;17.182;-96.766;2023-04-01T07:27:11;4.30;;;2.23;;
44272;SDS011;29964;17.182;-96.766;2023-04-01T07:29:38;4.67;;;2.40;;
44272;SDS011;29964;17.182;-96.766;2023-04-01T07:37:53;10.37;;;3.43;;
44272;SDS011;29964;17.182;-96.766;2023-04-01T07:52:49;2.47;;;2.03;;
44272;SDS011;29964;17.182;-96.766;2023-04-01T07:55:26;4.27;;;2.03;;
44272;SDS011;29964;17.182;-96.766;2023-04-01T07:58:01;2.87;;;2.13;;
44272;SDS011;29964;17.182;-96.766;2023-04-01T08:05:47;4.57;;;2.23;;
44272;SDS011;29964;17.182;-96.766;2023-04-01T08:10:48;2.50;;;1.90;;
44272;SDS011;29964;17.182;-96.766;2023-04-01T08:13:35;4.60;;;2.87;;
44272;SDS011;29964;17.182;-96.766;2023-04-01T08:21:38;4.17;;;2.43;;
44272;SDS011;29964;17.182;-96.766;2023-04-01T08:24:33;2.70;;;2.37;;
44272;SDS011;29964;17.182;-96.766;2023-04-01T08:27:00;6.37;;;3.10;;
44272;SDS011;29964;17.182;-96.766;2023-04-01T08:29:34;5.20;;;2.37;;
44272;SDS011;29964;17.182;-96.766;2023-04-01T08:34:36;3.10;;;1.63;;
44272;SDS011;29964;17.182;-96.766;2023-04-01T08:37:14;3.20;;;1.97;;
44272;SDS011;29964;17.182;-96.766;2023-04-01T08:39:47;2.23;;;1.60;;
44272;SDS011;29964;17.182;-96.766;2023-04-01T08:42:18;3.60;;;1.73;;
44272;SDS011;29964;17.182;-96.766;2023-04-01T08:47:24;11.77;;;2.60;;
44272;SDS011;29964;17.182;-96.766;2023-04-01T08:52:37;4.67;;;3.07;;
44272;SDS011;29964;17.182;-96.766;2023-04-01T09:03:05;6.63;;;3.23;;
44272;SDS011;29964;17.182;-96.766;2023-04-01T09:05:35;4.37;;;2.33;;
44272;SDS011;29964;17.182;-96.766;2023-04-01T09:08:07;5.57;;;2.50;;
44272;SDS011;29964;17.182;-96.766;2023-04-01T09:23:59;3.70;;;2.37;;
44272;SDS011;29964;17.182;-96.766;2023-04-01T09:26:39;4.37;;;2.87;;
44272;SDS011;29964;17.182;-96.766;2023-04-01T09:34:13;4.40;;;2.57;;
44272;SDS011;29964;17.182;-96.766;2023-04-01T09:36:46;3.80;;;2.50;;
44272;SDS011;29964;17.182;-96.766;2023-04-01T09:44:33;5.10;;;2.27;;
44272;SDS011;29964;17.182;-96.766;2023-04-01T09:55:05;3.33;;;2.40;;
44272;SDS011;29964;17.182;-96.766;2023-04-01T10:00:27;4.03;;;2.60;;
44272;SDS011;29964;17.182;-96.766;2023-04-01T10:11:11;2.70;;;1.77;;
44272;SDS011;29964;17.182;-96.766;2023-04-01T10:14:42;5.00;;;2.30;;
44272;SDS011;29964;17.182;-96.766;2023-04-01T10:16:44;4.22;;;2.35;;
44272;SDS011;29964;17.182;-96.766;2023-04-01T10:35:14;2.50;;;1.73;;
44272;SDS011;29964;17.182;-96.766;2023-04-01T10:40:44;4.90;;;2.50;;
44272;SDS011;29964;17.182;-96.766;2023-04-01T10:59:14;3.40;;;2.27;;
44272;SDS011;29964;17.182;-96.766;2023-04-01T11:17:15;7.20;;;2.63;;
44272;SDS011;29964;17.182;-96.766;2023-04-01T11:41:25;8.10;;;2.83;;
44272;SDS011;29964;17.182;-96.766;2023-04-01T12:04:54;3.47;;;2.53;;
44272;SDS011;29964;17.182;-96.766;2023-04-01T12:10:16;2.53;;;2.13;;
44272;SDS011;29964;17.182;-96.766;2023-04-01T12:18:17;2.63;;;2.10;;
44272;SDS011;29964;17.182;-96.766;2023-04-01T12:36:35;3.57;;;2.57;;
44272;SDS011;29964;17.182;-96.766;2023-04-01T12:44:13;3.43;;;2.53;;
44272;SDS011;29964;17.182;-96.766;2023-04-01T12:46:49;2.27;;;1.77;;
44272;SDS011;29964;17.182;-96.766;2023-04-01T12:59:48;3.97;;;2.80;;
44272;SDS011;29964;17.182;-96.766;2023-04-01T13:02:40;2.90;;;1.83;;
44272;SDS011;29964;17.182;-96.766;2023-04-01T13:10:43;3.85;;;2.53;;
44272;SDS011;29964;17.182;-96.766;2023-04-01T13:21:03;4.17;;;3.47;;
44272;SDS011;29964;17.182;-96.766;2023-04-01T13:23:37;8.57;;;4.15;;
44272;SDS011;29964;17.182;-96.766;2023-04-01T13:28:50;5.03;;;3.63;;
44272;SDS011;29964;17.182;-96.766;2023-04-01T13:31:30;5.57;;;3.43;;
44272;SDS011;29964;17.182;-96.766;2023-04-01T13:45:15;3.47;;;2.45;;
44272;SDS011;29964;17.182;-96.766;2023-04-01T13:55:45;5.83;;;2.90;;
44272;SDS011;29964;17.182;-96.766;2023-04-01T13:58:20;11.57;;;3.75;;
44272;SDS011;29964;17.182;-96.766;2023-04-01T14:01:00;5.93;;;3.67;;
44272;SDS011;29964;17.182;-96.766;2023-04-01T14:06:19;20.13;;;5.25;;
44272;SDS011;29964;17.182;-96.766;2023-04-01T14:34:42;7.37;;;4.33;;
44272;SDS011;29964;17.182;-96.766;2023-04-01T14:37:19;8.85;;;5.28;;
44272;SDS011;29964;17.182;-96.766;2023-04-01T14:45:12;14.10;;;3.83;;
44272;SDS011;29964;17.182;-96.766;2023-04-01T14:47:51;5.50;;;4.03;;
44272;SDS011;29964;17.182;-96.766;2023-04-01T14:50:21;7.90;;;5.17;;
44272;SDS011;29964;17.182;-96.766;2023-04-01T14:58:16;5.43;;;3.77;;
44272;SDS011;29964;17.182;-96.766;2023-04-01T15:08:34;12.07;;;5.33;;
44272;SDS011;29964;17.182;-96.766;2023-04-01T15:34:44;10.73;;;4.72;;
44272;SDS011;29964;17.182;-96.766;2023-04-01T15:37:37;10.20;;;4.35;;
44272;SDS011;29964;17.182;-96.766;2023-04-01T15:45:18;4.85;;;3.60;;
44272;SDS011;29964;17.182;-96.766;2023-04-01T15:47:54;9.07;;;4.38;;
44272;SDS011;29964;17.182;-96.766;2023-04-01T15:55:42;6.72;;;3.47;;
44272;SDS011;29964;17.182;-96.766;2023-04-01T16:01:20;5.60;;;4.00;;
44272;SDS011;29964;17.182;-96.766;2023-04-01T16:04:07;7.07;;;3.97;;
44272;SDS011;29964;17.182;-96.766;2023-04-01T16:20:02;9.02;;;4.22;;
44272;SDS011;29964;17.182;-96.766;2023-04-01T16:30:35;8.70;;;3.85;;
44272;SDS011;29964;17.182;-96.766;2023-04-01T16:48:14;7.07;;;4.03;;
44272;SDS011;29964;17.182;-96.766;2023-04-01T16:51:00;5.93;;;3.00;;
44272;SDS011;29964;17.182;-96.766;2023-04-01T17:01:04;7.07;;;4.00;;
44272;SDS011;29964;17.182;-96.766;2023-04-01T17:03:33;6.38;;;3.90;;
44272;SDS011;29964;17.182;-96.766;2023-04-01T17:06:07;11.40;;;4.18;;
44272;SDS011;29964;17.182;-96.766;2023-04-01T17:08:43;5.40;;;3.25;;
44272;SDS011;29964;17.182;-96.766;2023-04-01T17:13:46;6.00;;;2.78;;
44272;SDS011;29964;17.182;-96.766;2023-04-01T17:24:29;6.43;;;3.45;;
44272;SDS011;29964;17.182;-96.766;2023-04-01T17:34:53;4.50;;;2.60;;
44272;SDS011;29964;17.182;-96.766;2023-04-01T17:47:44;4.00;;;1.88;;
44272;SDS011;29964;17.182;-96.766;2023-04-01T17:52:54;3.80;;;2.63;;
44272;SDS011;29964;17.182;-96.766;2023-04-01T17:58:03;4.22;;;2.83;;
44272;SDS011;29964;17.182;-96.766;2023-04-01T18:00:39;12.43;;;2.67;;
44272;SDS011;29964;17.182;-96.766;2023-04-01T18:03:20;19.23;;;3.33;;
44272;SDS011;29964;17.182;-96.766;2023-04-01T18:06:01;4.80;;;3.30;;
44272;SDS011;29964;17.182;-96.766;2023-04-01T18:11:13;4.47;;;2.92;;
44272;SDS011;29964;17.182;-96.766;2023-04-01T18:13:46;3.67;;;2.92;;
44272;SDS011;29964;17.182;-96.766;2023-04-01T18:21:32;15.43;;;4.80;;
44272;SDS011;29964;17.182;-96.766;2023-04-01T18:24:14;7.45;;;4.07;;
44272;SDS011;29964;17.182;-96.766;2023-04-01T18:26:44;4.70;;;3.30;;
44272;SDS011;29964;17.182;-96.766;2023-04-01T18:32:07;4.90;;;3.45;;
44272;SDS011;29964;17.182;-96.766;2023-04-01T18:39:46;12.88;;;4.63;;
44272;SDS011;29964;17.182;-96.766;2023-04-01T18:47:43;5.38;;;3.90;;
44272;SDS011;29964;17.182;-96.766;2023-04-01T18:50:21;7.05;;;3.97;;
44272;SDS011;29964;17.182;-96.766;2023-04-01T18:52:51;12.05;;;3.15;;
44272;SDS011;29964;17.182;-96.766;2023-04-01T18:58:20;7.38;;;4.65;;
44272;SDS011;29964;17.182;-96.766;2023-04-01T19:01:22;8.73;;;4.72;;
44272;SDS011;29964;17.182;-96.766;2023-04-01T19:06:00;6.85;;;3.63;;
44272;SDS011;29964;17.182;-96.766;2023-04-01T19:08:34;3.80;;;2.95;;
44272;SDS011;29964;17.182;-96.766;2023-04-01T19:11:25;6.13;;;3.80;;
44272;SDS011;29964;17.182;-96.766;2023-04-01T19:13:58;5.15;;;3.55;;
44272;SDS011;29964;17.182;-96.766;2023-04-01T19:16:37;4.43;;;2.90;;
44272;SDS011;29964;17.182;-96.766;2023-04-01T19:19:21;5.90;;;3.97;;
44272;SDS011;29964;17.182;-96.766;2023-04-01T19:24:25;11.80;;;3.65;;
44272;SDS011;29964;17.182;-96.766;2023-04-01T19:27:42;5.22;;;3.80;;
44272;SDS011;29964;17.182;-96.766;2023-04-01T19:30:07;5.97;;;3.58;;
44272;SDS011;29964;17.182;-96.766;2023-04-01T19:40:32;5.93;;;3.88;;
44272;SDS011;29964;17.182;-96.766;2023-04-01T19:48:50;7.00;;;3.50;;
44272;SDS011;29964;17.182;-96.766;2023-04-01T19:53:53;6.00;;;3.88;;
44272;SDS011;29964;17.182;-96.766;2023-04-01T19:56:23;4.78;;;3.55;;
44272;SDS011;29964;17.182;-96.766;2023-04-01T19:59:02;9.85;;;3.50;;
44272;SDS011;29964;17.182;-96.766;2023-04-01T20:01:38;4.88;;;3.40;;
44272;SDS011;29964;17.182;-96.766;2023-04-01T20:06:57;5.28;;;2.95;;
44272;SDS011;29964;17.182;-96.766;2023-04-01T20:09:33;6.13;;;4.13;;
44272;SDS011;29964;17.182;-96.766;2023-04-01T20:14:47;9.10;;;3.33;;
44272;SDS011;29964;17.182;-96.766;2023-04-01T20:22:31;8.18;;;3.88;;
44272;SDS011;29964;17.182;-96.766;2023-04-01T20:25:03;6.97;;;3.75;;
44272;SDS011;29964;17.182;-96.766;2023-04-01T20:27:33;3.80;;;2.80;;
44272;SDS011;29964;17.182;-96.766;2023-04-01T20:40:44;5.35;;;3.88;;
44272;SDS011;29964;17.182;-96.766;2023-04-01T20:45:48;4.72;;;3.15;;
44272;SDS011;29964;17.182;-96.766;2023-04-01T20:48:26;5.32;;;3.33;;
44272;SDS011;29964;17.182;-96.766;2023-04-01T20:51:04;7.38;;;3.15;;
44272;SDS011;29964;17.182;-96.766;2023-04-01T21:07:20;5.28;;;3.00;;
44272;SDS011;29964;17.182;-96.766;2023-04-01T21:13:10;5.82;;;3.22;;
44272;SDS011;29964;17.182;-96.766;2023-04-01T21:18:27;4.75;;;2.85;;
44272;SDS011;29964;17.182;-96.766;2023-04-01T21:21:05;6.78;;;3.40;;
44272;SDS011;29964;17.182;-96.766;2023-04-01T21:26:10;7.75;;;3.13;;
44272;SDS011;29964;17.182;-96.766;2023-04-01T21:33:38;5.57;;;2.47;;
44272;SDS011;29964;17.182;-96.766;2023-04-01T21:38:47;4.70;;;1.92;;
44272;SDS011;29964;17.182;-96.766;2023-04-01T21:41:21;3.80;;;2.53;;
44272;SDS011;29964;17.182;-96.766;2023-04-01T21:46:45;4.30;;;2.60;;
44272;SDS011;29964;17.182;-96.766;2023-04-01T22:05:31;4.88;;;3.10;;
44272;SDS011;29964;17.182;-96.766;2023-04-01T22:08:16;3.10;;;2.00;;
44272;SDS011;29964;17.182;-96.766;2023-04-01T22:11:46;3.67;;;2.13;;
44272;SDS011;29964;17.182;-96.766;2023-04-01T22:24:29;4.85;;;2.75;;
44272;SDS011;29964;17.182;-96.766;2023-04-01T22:29:37;5.90;;;3.33;;
44272;SDS011;29964;17.182;-96.766;2023-04-01T22:32:06;4.55;;;2.88;;
44272;SDS011;29964;17.182;-96.766;2023-04-01T22:42:38;4.32;;;2.35;;
44272;SDS011;29964;17.182;-96.766;2023-04-01T22:50:31;4.47;;;3.05;;
44272;SDS011;29964;17.182;-96.766;2023-04-01T22:53:21;4.43;;;3.05;;
44272;SDS011;29964;17.182;-96.766;2023-04-01T22:55:50;3.92;;;2.75;;
44272;SDS011;29964;17.182;-96.766;2023-04-01T22:58:40;6.25;;;3.05;;
44272;SDS011;29964;17.182;-96.766;2023-04-01T23:01:10;3.83;;;2.58;;
44272;SDS011;29964;17.182;-96.766;2023-04-01T23:03:40;4.78;;;2.72;;
44272;SDS011;29964;17.182;-96.766;2023-04-01T23:06:18;6.25;;;3.10;;
44272;SDS011;29964;17.182;-96.766;2023-04-01T23:19:29;4.18;;;2.47;;
44272;SDS011;29964;17.182;-96.766;2023-04-01T23:22:07;4.18;;;2.90;;
44272;SDS011;29964;17.182;-96.766;2023-04-01T23:24:59;4.85;;;3.03;;
44272;SDS011;29964;17.182;-96.766;2023-04-01T23:27:33;3.10;;;2.35;;
44272;SDS011;29964;17.182;-96.766;2023-04-01T23:30:02;3.47;;;2.33;;
44272;SDS011;29964;17.182;-96.766;2023-04-01T23:32:29;6.90;;;3.35;;
44272;SDS011;29964;17.182;-96.766;2023-04-01T23:34:57;5.45;;;3.30;;
44272;SDS011;29964;17.182;-96.766;2023-04-01T23:37:24;2.95;;;2.20;;
44272;SDS011;29964;17.182;-96.766;2023-04-01T23:39:55;3.67;;;2.40;;
44272;SDS011;29964;17.182;-96.766;2023-04-01T23:44:50;4.13;;;2.55;;
44272;SDS011;29964;17.182;-96.766;2023-04-01T23:47:18;4.55;;;3.15;;
44272;SDS011;29964;17.182;-96.766;2023-04-01T23:52:35;5.28;;;2.28;;
44272;SDS011;29964;17.182;-96.766;2023-04-01T23:57:37;3.70;;;2.25;;
